Terminal Aerodrome Forecast
Issued by NWS Knoxville/Tri Cities, TN

Home | Current Version | Previous Version | Text Only | Print | Product List | Glossary On
Versions: 1 2 3 4 5 6 7 8 9 10 11 12 13 14 15 16 17 18 19 20 21 22 23 24 25 26 27 28 29 30 31 32 33 34 35 36
000
FTUS44 KMRX 300528
TAFCHA
TAF
KCHA 300528Z 3006/3106 20004KT P6SM BKN040
     FM300800 20004KT 6SM BR BKN050
      TEMPO 3010/3014 5SM BR BKN025
     FM301400 23005KT P6SM BKN035
     FM301800 27006KT P6SM SCT050 SCT250
     FM310000 00000KT P6SM BKN250=

USA.gov is the U.S. government's official web portal to all federal, state and local government web resources and services.